sensor_id;sensor_type;location;lat;lon;timestamp;temperature;humidity
7366;DHT22;3723;52.220;8.792;2023-07-16T00:01:11;19.30;99.90
7366;DHT22;3723;52.220;8.792;2023-07-16T00:03:40;19.30;99.90
7366;DHT22;3723;52.220;8.792;2023-07-16T00:06:24;19.30;99.90
7366;DHT22;3723;52.220;8.792;2023-07-16T00:08:53;19.30;99.90
7366;DHT22;3723;52.220;8.792;2023-07-16T00:11:24;19.30;99.90
7366;DHT22;3723;52.220;8.792;2023-07-16T00:13:55;19.40;99.90
7366;DHT22;3723;52.220;8.792;2023-07-16T00:16:45;19.40;99.90
7366;DHT22;3723;52.220;8.792;2023-07-16T00:19:14;19.40;99.90
7366;DHT22;3723;52.220;8.792;2023-07-16T00:21:47;19.40;99.90
7366;DHT22;3723;52.220;8.792;2023-07-16T00:24:14;19.40;99.90
7366;DHT22;3723;52.220;8.792;2023-07-16T00:27:28;19.40;99.90
7366;DHT22;3723;52.220;8.792;2023-07-16T00:37:18;19.10;99.90
7366;DHT22;3723;52.220;8.792;2023-07-16T00:40:00;19.00;99.90
7366;DHT22;3723;52.220;8.792;2023-07-16T00:42:44;18.90;99.90
7366;DHT22;3723;52.220;8.792;2023-07-16T00:45:13;18.90;99.90
7366;DHT22;3723;52.220;8.792;2023-07-16T00:47:58;18.90;99.90
7366;DHT22;3723;52.220;8.792;2023-07-16T00:50:40;18.90;99.90
7366;DHT22;3723;52.220;8.792;2023-07-16T00:53:09;18.90;99.90
7366;DHT22;3723;52.220;8.792;2023-07-16T00:55:51;18.90;99.90
7366;DHT22;3723;52.220;8.792;2023-07-16T01:01:15;19.00;99.90
7366;DHT22;3723;52.220;8.792;2023-07-16T01:04:42;19.00;99.90
7366;DHT22;3723;52.220;8.792;2023-07-16T01:07:31;19.00;99.90
7366;DHT22;3723;52.220;8.792;2023-07-16T01:10:04;19.00;99.90
7366;DHT22;3723;52.220;8.792;2023-07-16T01:12:40;19.00;99.90
7366;DHT22;3723;52.220;8.792;2023-07-16T01:18:29;18.90;99.90
7366;DHT22;3723;52.220;8.792;2023-07-16T01:21:05;18.80;99.90
7366;DHT22;3723;52.220;8.792;2023-07-16T01:24:18;18.70;99.90
7366;DHT22;3723;52.220;8.792;2023-07-16T01:27:22;18.60;99.90
7366;DHT22;3723;52.220;8.792;2023-07-16T01:30:04;18.50;99.90
7366;DHT22;3723;52.220;8.792;2023-07-16T01:32:49;18.50;99.90
7366;DHT22;3723;52.220;8.792;2023-07-16T01:39:03;18.50;99.90
7366;DHT22;3723;52.220;8.792;2023-07-16T01:45:33;18.50;99.90
7366;DHT22;3723;52.220;8.792;2023-07-16T01:48:46;18.60;99.90
7366;DHT22;3723;52.220;8.792;2023-07-16T01:51:28;18.70;99.90
7366;DHT22;3723;52.220;8.792;2023-07-16T01:57:44;18.80;99.90
7366;DHT22;3723;52.220;8.792;2023-07-16T02:00:14;18.80;99.90
7366;DHT22;3723;52.220;8.792;2023-07-16T02:02:53;18.80;99.90
7366;DHT22;3723;52.220;8.792;2023-07-16T02:05:28;18.80;99.90
7366;DHT22;3723;52.220;8.792;2023-07-16T02:08:12;18.80;99.90
7366;DHT22;3723;52.220;8.792;2023-07-16T02:10:47;18.80;99.90
7366;DHT22;3723;52.220;8.792;2023-07-16T02:13:42;18.90;99.90
7366;DHT22;3723;52.220;8.792;2023-07-16T02:16:12;18.80;99.90
7366;DHT22;3723;52.220;8.792;2023-07-16T02:18:56;18.80;99.90
7366;DHT22;3723;52.220;8.792;2023-07-16T02:22:02;18.70;99.90
7366;DHT22;3723;52.220;8.792;2023-07-16T02:24:49;18.70;99.90
7366;DHT22;3723;52.220;8.792;2023-07-16T02:27:19;18.60;99.90
7366;DHT22;3723;52.220;8.792;2023-07-16T02:29:50;18.50;99.90
7366;DHT22;3723;52.220;8.792;2023-07-16T02:35:21;18.40;99.90
7366;DHT22;3723;52.220;8.792;2023-07-16T02:38:11;18.30;99.90
7366;DHT22;3723;52.220;8.792;2023-07-16T02:40:45;18.30;99.90
7366;DHT22;3723;52.220;8.792;2023-07-16T02:46:27;18.20;99.90
7366;DHT22;3723;52.220;8.792;2023-07-16T02:48:54;18.20;99.90
7366;DHT22;3723;52.220;8.792;2023-07-16T02:51:26;18.20;99.90
7366;DHT22;3723;52.220;8.792;2023-07-16T02:53:58;18.20;99.90
7366;DHT22;3723;52.220;8.792;2023-07-16T02:56:32;18.20;99.90
7366;DHT22;3723;52.220;8.792;2023-07-16T02:59:00;18.20;99.90
7366;DHT22;3723;52.220;8.792;2023-07-16T03:01:42;18.10;99.90
7366;DHT22;3723;52.220;8.792;2023-07-16T03:04:23;18.10;99.90
7366;DHT22;3723;52.220;8.792;2023-07-16T03:06:55;18.00;99.90
7366;DHT22;3723;52.220;8.792;2023-07-16T03:09:26;18.00;99.90
7366;DHT22;3723;52.220;8.792;2023-07-16T03:11:53;17.90;99.90
7366;DHT22;3723;52.220;8.792;2023-07-16T03:17:59;17.70;99.90
7366;DHT22;3723;52.220;8.792;2023-07-16T03:20:28;17.50;99.90
7366;DHT22;3723;52.220;8.792;2023-07-16T03:23:16;17.40;99.90
7366;DHT22;3723;52.220;8.792;2023-07-16T03:25:48;17.30;99.90
7366;DHT22;3723;52.220;8.792;2023-07-16T03:28:15;17.30;99.90
7366;DHT22;3723;52.220;8.792;2023-07-16T03:31:08;17.30;99.90
7366;DHT22;3723;52.220;8.792;2023-07-16T03:33:53;17.20;99.90
7366;DHT22;3723;52.220;8.792;2023-07-16T03:36:23;17.10;99.90
7366;DHT22;3723;52.220;8.792;2023-07-16T03:38:51;17.10;99.90
7366;DHT22;3723;52.220;8.792;2023-07-16T03:41:20;17.10;99.90
7366;DHT22;3723;52.220;8.792;2023-07-16T03:43:50;17.10;99.90
7366;DHT22;3723;52.220;8.792;2023-07-16T03:46:17;17.20;99.90
7366;DHT22;3723;52.220;8.792;2023-07-16T03:48:47;17.20;99.90
7366;DHT22;3723;52.220;8.792;2023-07-16T03:51:38;17.30;99.90
7366;DHT22;3723;52.220;8.792;2023-07-16T03:54:15;17.30;99.90
7366;DHT22;3723;52.220;8.792;2023-07-16T04:03:41;17.30;99.90
7366;DHT22;3723;52.220;8.792;2023-07-16T04:09:59;17.40;99.90
7366;DHT22;3723;52.220;8.792;2023-07-16T04:12:25;17.50;99.90
7366;DHT22;3723;52.220;8.792;2023-07-16T04:14:55;17.50;99.90
7366;DHT22;3723;52.220;8.792;2023-07-16T04:17:32;17.50;99.90
7366;DHT22;3723;52.220;8.792;2023-07-16T04:19:59;17.60;99.90
7366;DHT22;3723;52.220;8.792;2023-07-16T04:22:33;17.60;99.90
7366;DHT22;3723;52.220;8.792;2023-07-16T04:25:02;17.80;99.90
7366;DHT22;3723;52.220;8.792;2023-07-16T04:27:36;18.20;99.90
7366;DHT22;3723;52.220;8.792;2023-07-16T04:30:03;18.70;99.90
7366;DHT22;3723;52.220;8.792;2023-07-16T04:32:30;19.20;99.90
7366;DHT22;3723;52.220;8.792;2023-07-16T04:34:57;19.50;99.90
7366;DHT22;3723;52.220;8.792;2023-07-16T04:37:30;19.50;99.90
7366;DHT22;3723;52.220;8.792;2023-07-16T04:39:58;19.90;99.90
7366;DHT22;3723;52.220;8.792;2023-07-16T04:42:27;20.30;99.90
7366;DHT22;3723;52.220;8.792;2023-07-16T04:44:54;20.60;99.90
7366;DHT22;3723;52.220;8.792;2023-07-16T04:47:20;21.00;99.90
7366;DHT22;3723;52.220;8.792;2023-07-16T04:49:47;21.30;99.90
7366;DHT22;3723;52.220;8.792;2023-07-16T04:52:14;21.50;99.90
7366;DHT22;3723;52.220;8.792;2023-07-16T04:54:46;21.80;99.90
7366;DHT22;3723;52.220;8.792;2023-07-16T04:57:14;22.10;99.90
7366;DHT22;3723;52.220;8.792;2023-07-16T04:59:45;22.50;99.90
7366;DHT22;3723;52.220;8.792;2023-07-16T05:02:13;22.90;99.90
7366;DHT22;3723;52.220;8.792;2023-07-16T05:04:48;23.30;99.90
7366;DHT22;3723;52.220;8.792;2023-07-16T05:07:39;23.50;99.90
7366;DHT22;3723;52.220;8.792;2023-07-16T05:10:07;23.70;99.90
7366;DHT22;3723;52.220;8.792;2023-07-16T05:12:34;23.80;99.90
7366;DHT22;3723;52.220;8.792;2023-07-16T05:15:03;23.80;99.90
7366;DHT22;3723;52.220;8.792;2023-07-16T05:17:32;23.80;99.90
7366;DHT22;3723;52.220;8.792;2023-07-16T05:19:59;23.90;99.90
7366;DHT22;3723;52.220;8.792;2023-07-16T05:22:29;23.90;99.90
7366;DHT22;3723;52.220;8.792;2023-07-16T05:25:00;23.90;99.90
7366;DHT22;3723;52.220;8.792;2023-07-16T05:27:30;24.00;99.90
7366;DHT22;3723;52.220;8.792;2023-07-16T05:29:58;24.20;99.90
7366;DHT22;3723;52.220;8.792;2023-07-16T05:32:26;24.30;99.90
7366;DHT22;3723;52.220;8.792;2023-07-16T05:34:56;24.50;99.90
7366;DHT22;3723;52.220;8.792;2023-07-16T05:37:23;24.60;99.90
7366;DHT22;3723;52.220;8.792;2023-07-16T05:39:50;24.70;99.90
7366;DHT22;3723;52.220;8.792;2023-07-16T05:42:17;24.70;99.90
7366;DHT22;3723;52.220;8.792;2023-07-16T05:44:47;24.60;99.90
7366;DHT22;3723;52.220;8.792;2023-07-16T05:47:20;24.60;99.90
7366;DHT22;3723;52.220;8.792;2023-07-16T05:49:48;24.40;99.90
7366;DHT22;3723;52.220;8.792;2023-07-16T05:52:16;24.40;99.90
7366;DHT22;3723;52.220;8.792;2023-07-16T05:54:44;24.50;99.90
7366;DHT22;3723;52.220;8.792;2023-07-16T05:57:29;24.90;99.90
7366;DHT22;3723;52.220;8.792;2023-07-16T05:59:58;25.20;99.90
7366;DHT22;3723;52.220;8.792;2023-07-16T06:02:26;25.20;99.90
7366;DHT22;3723;52.220;8.792;2023-07-16T06:04:54;25.10;99.90
7366;DHT22;3723;52.220;8.792;2023-07-16T06:07:21;25.10;99.90
7366;DHT22;3723;52.220;8.792;2023-07-16T06:09:48;25.20;99.90
7366;DHT22;3723;52.220;8.792;2023-07-16T06:12:14;25.00;99.90
7366;DHT22;3723;52.220;8.792;2023-07-16T06:14:51;25.10;99.90
7366;DHT22;3723;52.220;8.792;2023-07-16T06:17:18;25.00;99.90
7366;DHT22;3723;52.220;8.792;2023-07-16T06:19:46;25.00;99.90
7366;DHT22;3723;52.220;8.792;2023-07-16T06:22:21;24.90;99.90
7366;DHT22;3723;52.220;8.792;2023-07-16T06:24:49;24.80;99.90
7366;DHT22;3723;52.220;8.792;2023-07-16T06:27:16;25.00;99.90
7366;DHT22;3723;52.220;8.792;2023-07-16T06:29:43;24.60;99.90
7366;DHT22;3723;52.220;8.792;2023-07-16T06:32:12;24.70;99.90
7366;DHT22;3723;52.220;8.792;2023-07-16T06:34:39;25.20;99.90
7366;DHT22;3723;52.220;8.792;2023-07-16T06:37:06;25.60;99.90
7366;DHT22;3723;52.220;8.792;2023-07-16T06:39:34;25.60;99.90
7366;DHT22;3723;52.220;8.792;2023-07-16T06:42:01;25.50;99.90
7366;DHT22;3723;52.220;8.792;2023-07-16T06:44:28;25.30;99.90
7366;DHT22;3723;52.220;8.792;2023-07-16T06:46:55;25.10;99.90
7366;DHT22;3723;52.220;8.792;2023-07-16T06:49:23;25.60;99.90
7366;DHT22;3723;52.220;8.792;2023-07-16T06:51:50;25.60;99.90
7366;DHT22;3723;52.220;8.792;2023-07-16T06:54:17;24.80;99.90
7366;DHT22;3723;52.220;8.792;2023-07-16T06:56:45;24.70;99.90
7366;DHT22;3723;52.220;8.792;2023-07-16T06:59:12;24.80;99.90
7366;DHT22;3723;52.220;8.792;2023-07-16T07:01:39;25.30;99.90
7366;DHT22;3723;52.220;8.792;2023-07-16T07:04:05;25.70;99.90
7366;DHT22;3723;52.220;8.792;2023-07-16T07:06:32;26.10;99.90
7366;DHT22;3723;52.220;8.792;2023-07-16T07:08:59;26.30;99.90
7366;DHT22;3723;52.220;8.792;2023-07-16T07:11:26;26.50;99.90
7366;DHT22;3723;52.220;8.792;2023-07-16T07:13:54;26.90;99.90
7366;DHT22;3723;52.220;8.792;2023-07-16T07:16:22;27.30;99.90
7366;DHT22;3723;52.220;8.792;2023-07-16T07:18:49;27.50;99.90
7366;DHT22;3723;52.220;8.792;2023-07-16T07:21:16;27.30;99.90
7366;DHT22;3723;52.220;8.792;2023-07-16T07:23:44;27.20;99.90
7366;DHT22;3723;52.220;8.792;2023-07-16T07:26:10;27.00;99.90
7366;DHT22;3723;52.220;8.792;2023-07-16T07:28:37;27.20;99.90
7366;DHT22;3723;52.220;8.792;2023-07-16T07:31:05;26.80;99.90
7366;DHT22;3723;52.220;8.792;2023-07-16T07:33:32;26.70;99.90
7366;DHT22;3723;52.220;8.792;2023-07-16T07:36:01;26.30;99.90
7366;DHT22;3723;52.220;8.792;2023-07-16T07:38:28;26.10;99.90
7366;DHT22;3723;52.220;8.792;2023-07-16T07:40:55;25.60;99.90
7366;DHT22;3723;52.220;8.792;2023-07-16T07:43:22;24.70;99.90
7366;DHT22;3723;52.220;8.792;2023-07-16T07:45:49;23.90;99.90
7366;DHT22;3723;52.220;8.792;2023-07-16T07:48:17;24.20;99.90
7366;DHT22;3723;52.220;8.792;2023-07-16T07:50:46;25.10;99.90
7366;DHT22;3723;52.220;8.792;2023-07-16T07:53:13;25.90;99.90
7366;DHT22;3723;52.220;8.792;2023-07-16T07:55:43;26.50;99.90
7366;DHT22;3723;52.220;8.792;2023-07-16T07:58:10;26.90;99.90
7366;DHT22;3723;52.220;8.792;2023-07-16T08:00:37;27.50;99.90
7366;DHT22;3723;52.220;8.792;2023-07-16T08:03:04;27.60;99.90
7366;DHT22;3723;52.220;8.792;2023-07-16T08:05:33;27.70;99.90
7366;DHT22;3723;52.220;8.792;2023-07-16T08:08:00;27.70;99.90
7366;DHT22;3723;52.220;8.792;2023-07-16T08:10:27;27.70;99.90
7366;DHT22;3723;52.220;8.792;2023-07-16T08:12:54;27.60;99.90
7366;DHT22;3723;52.220;8.792;2023-07-16T08:15:21;27.20;99.90
7366;DHT22;3723;52.220;8.792;2023-07-16T08:17:48;27.20;99.90
7366;DHT22;3723;52.220;8.792;2023-07-16T08:20:14;27.40;99.90
7366;DHT22;3723;52.220;8.792;2023-07-16T08:22:43;27.50;99.90
7366;DHT22;3723;52.220;8.792;2023-07-16T08:25:10;28.00;99.90
7366;DHT22;3723;52.220;8.792;2023-07-16T08:27:37;28.40;99.90
7366;DHT22;3723;52.220;8.792;2023-07-16T08:30:06;28.70;99.90
7366;DHT22;3723;52.220;8.792;2023-07-16T08:32:33;28.90;99.90
7366;DHT22;3723;52.220;8.792;2023-07-16T08:35:00;29.00;99.90
7366;DHT22;3723;52.220;8.792;2023-07-16T08:37:27;29.10;99.90
7366;DHT22;3723;52.220;8.792;2023-07-16T08:39:55;29.30;99.90
7366;DHT22;3723;52.220;8.792;2023-07-16T08:42:22;29.20;99.90
7366;DHT22;3723;52.220;8.792;2023-07-16T08:44:50;29.20;99.90
7366;DHT22;3723;52.220;8.792;2023-07-16T08:47:17;29.20;99.90
7366;DHT22;3723;52.220;8.792;2023-07-16T08:49:50;29.30;99.90
7366;DHT22;3723;52.220;8.792;2023-07-16T08:52:20;29.30;99.90
7366;DHT22;3723;52.220;8.792;2023-07-16T08:54:47;29.10;99.90
7366;DHT22;3723;52.220;8.792;2023-07-16T08:57:15;29.30;99.90
7366;DHT22;3723;52.220;8.792;2023-07-16T08:59:43;28.80;99.90
7366;DHT22;3723;52.220;8.792;2023-07-16T09:02:11;28.60;99.90
7366;DHT22;3723;52.220;8.792;2023-07-16T09:04:39;28.40;99.90
7366;DHT22;3723;52.220;8.792;2023-07-16T09:07:05;27.50;99.90
7366;DHT22;3723;52.220;8.792;2023-07-16T09:09:32;26.30;99.90
7366;DHT22;3723;52.220;8.792;2023-07-16T09:11:59;25.80;99.90
7366;DHT22;3723;52.220;8.792;2023-07-16T09:14:29;25.70;99.90
7366;DHT22;3723;52.220;8.792;2023-07-16T09:16:56;25.40;99.90
7366;DHT22;3723;52.220;8.792;2023-07-16T09:19:26;25.20;99.90
7366;DHT22;3723;52.220;8.792;2023-07-16T09:21:53;25.90;99.90
7366;DHT22;3723;52.220;8.792;2023-07-16T09:24:20;27.00;99.90
7366;DHT22;3723;52.220;8.792;2023-07-16T09:26:48;27.70;99.90
7366;DHT22;3723;52.220;8.792;2023-07-16T09:29:16;27.30;99.90
7366;DHT22;3723;52.220;8.792;2023-07-16T09:31:59;26.60;99.90
7366;DHT22;3723;52.220;8.792;2023-07-16T09:34:28;25.50;99.90
7366;DHT22;3723;52.220;8.792;2023-07-16T09:36:56;25.10;99.90
7366;DHT22;3723;52.220;8.792;2023-07-16T09:39:26;25.30;99.90
7366;DHT22;3723;52.220;8.792;2023-07-16T09:41:59;25.40;99.90
7366;DHT22;3723;52.220;8.792;2023-07-16T09:44:30;26.10;99.90
7366;DHT22;3723;52.220;8.792;2023-07-16T09:47:05;27.10;99.90
7366;DHT22;3723;52.220;8.792;2023-07-16T09:49:38;27.70;99.90
7366;DHT22;3723;52.220;8.792;2023-07-16T09:52:06;27.90;99.90
7366;DHT22;3723;52.220;8.792;2023-07-16T09:54:35;28.00;99.90
7366;DHT22;3723;52.220;8.792;2023-07-16T09:57:04;28.00;99.90
7366;DHT22;3723;52.220;8.792;2023-07-16T09:59:32;27.50;99.90
7366;DHT22;3723;52.220;8.792;2023-07-16T10:02:02;27.00;99.90
7366;DHT22;3723;52.220;8.792;2023-07-16T10:04:37;27.20;99.90
7366;DHT22;3723;52.220;8.792;2023-07-16T10:07:05;27.80;99.90
7366;DHT22;3723;52.220;8.792;2023-07-16T10:09:36;28.50;99.90
7366;DHT22;3723;52.220;8.792;2023-07-16T10:12:18;29.10;99.90
7366;DHT22;3723;52.220;8.792;2023-07-16T10:14:46;29.70;99.90
7366;DHT22;3723;52.220;8.792;2023-07-16T10:17:16;30.10;99.90
7366;DHT22;3723;52.220;8.792;2023-07-16T10:19:48;29.70;99.90
7366;DHT22;3723;52.220;8.792;2023-07-16T10:22:15;29.60;99.90
7366;DHT22;3723;52.220;8.792;2023-07-16T10:24:52;29.60;99.90
7366;DHT22;3723;52.220;8.792;2023-07-16T10:27:30;30.20;99.90
7366;DHT22;3723;52.220;8.792;2023-07-16T10:29:59;30.20;99.90
7366;DHT22;3723;52.220;8.792;2023-07-16T10:32:29;30.40;99.90
7366;DHT22;3723;52.220;8.792;2023-07-16T10:35:04;29.80;99.90
7366;DHT22;3723;52.220;8.792;2023-07-16T10:37:32;29.20;99.90
7366;DHT22;3723;52.220;8.792;2023-07-16T10:40:00;29.10;99.90
7366;DHT22;3723;52.220;8.792;2023-07-16T10:42:32;29.20;99.90
7366;DHT22;3723;52.220;8.792;2023-07-16T10:45:04;29.40;99.90
7366;DHT22;3723;52.220;8.792;2023-07-16T10:47:39;29.60;99.90
7366;DHT22;3723;52.220;8.792;2023-07-16T10:50:09;30.20;99.90
7366;DHT22;3723;52.220;8.792;2023-07-16T10:52:37;29.80;99.90
7366;DHT22;3723;52.220;8.792;2023-07-16T10:55:17;29.70;99.90
7366;DHT22;3723;52.220;8.792;2023-07-16T10:57:48;30.00;99.90
7366;DHT22;3723;52.220;8.792;2023-07-16T11:00:16;29.60;99.90
7366;DHT22;3723;52.220;8.792;2023-07-16T11:02:45;28.90;99.90
7366;DHT22;3723;52.220;8.792;2023-07-16T11:05:13;28.40;99.90
7366;DHT22;3723;52.220;8.792;2023-07-16T11:07:43;28.70;99.90
7366;DHT22;3723;52.220;8.792;2023-07-16T11:10:11;28.80;99.90
7366;DHT22;3723;52.220;8.792;2023-07-16T11:12:38;28.60;99.90
7366;DHT22;3723;52.220;8.792;2023-07-16T11:15:05;27.80;98.00
7366;DHT22;3723;52.220;8.792;2023-07-16T11:17:32;28.30;99.90
7366;DHT22;3723;52.220;8.792;2023-07-16T11:20:01;29.20;99.90
7366;DHT22;3723;52.220;8.792;2023-07-16T11:22:29;29.70;99.90
7366;DHT22;3723;52.220;8.792;2023-07-16T11:24:57;29.90;99.90
7366;DHT22;3723;52.220;8.792;2023-07-16T11:27:30;29.60;99.90
7366;DHT22;3723;52.220;8.792;2023-07-16T11:30:09;29.10;99.90
7366;DHT22;3723;52.220;8.792;2023-07-16T11:32:38;28.50;99.90
7366;DHT22;3723;52.220;8.792;2023-07-16T11:35:10;28.40;99.90
7366;DHT22;3723;52.220;8.792;2023-07-16T11:37:38;28.00;97.80
7366;DHT22;3723;52.220;8.792;2023-07-16T11:40:08;27.90;99.40
7366;DHT22;3723;52.220;8.792;2023-07-16T11:42:36;29.00;99.90
7366;DHT22;3723;52.220;8.792;2023-07-16T11:45:14;29.90;99.90
7366;DHT22;3723;52.220;8.792;2023-07-16T11:47:45;29.50;99.90
7366;DHT22;3723;52.220;8.792;2023-07-16T11:50:15;28.90;99.90
7366;DHT22;3723;52.220;8.792;2023-07-16T11:52:42;28.50;99.30
7366;DHT22;3723;52.220;8.792;2023-07-16T11:55:09;28.50;99.40
7366;DHT22;3723;52.220;8.792;2023-07-16T11:57:37;29.00;99.90
7366;DHT22;3723;52.220;8.792;2023-07-16T12:00:05;29.50;99.90
7366;DHT22;3723;52.220;8.792;2023-07-16T12:02:32;29.30;99.90
7366;DHT22;3723;52.220;8.792;2023-07-16T12:05:02;28.80;99.90
7366;DHT22;3723;52.220;8.792;2023-07-16T12:07:33;28.10;97.20
7366;DHT22;3723;52.220;8.792;2023-07-16T12:10:00;28.10;96.90
7366;DHT22;3723;52.220;8.792;2023-07-16T12:12:29;29.10;99.90
7366;DHT22;3723;52.220;8.792;2023-07-16T12:15:01;29.70;99.90
7366;DHT22;3723;52.220;8.792;2023-07-16T12:17:32;30.40;99.90
7366;DHT22;3723;52.220;8.792;2023-07-16T12:20:10;31.10;99.90
7366;DHT22;3723;52.220;8.792;2023-07-16T12:22:39;31.90;99.90
7366;DHT22;3723;52.220;8.792;2023-07-16T12:25:07;32.30;99.90
7366;DHT22;3723;52.220;8.792;2023-07-16T12:27:34;31.30;99.90
7366;DHT22;3723;52.220;8.792;2023-07-16T12:30:01;30.30;99.90
7366;DHT22;3723;52.220;8.792;2023-07-16T12:32:28;29.90;99.20
7366;DHT22;3723;52.220;8.792;2023-07-16T12:34:55;29.30;96.60
7366;DHT22;3723;52.220;8.792;2023-07-16T12:37:23;28.30;94.10
7366;DHT22;3723;52.220;8.792;2023-07-16T12:39:52;28.40;94.60
7366;DHT22;3723;52.220;8.792;2023-07-16T12:42:19;29.60;98.40
7366;DHT22;3723;52.220;8.792;2023-07-16T12:44:46;29.90;99.40
7366;DHT22;3723;52.220;8.792;2023-07-16T12:47:15;29.20;97.20
7366;DHT22;3723;52.220;8.792;2023-07-16T12:49:42;28.70;96.10
7366;DHT22;3723;52.220;8.792;2023-07-16T12:52:09;28.60;94.50
7366;DHT22;3723;52.220;8.792;2023-07-16T12:54:36;28.70;94.90
7366;DHT22;3723;52.220;8.792;2023-07-16T12:57:05;29.50;97.50
7366;DHT22;3723;52.220;8.792;2023-07-16T12:59:32;29.60;97.60
7366;DHT22;3723;52.220;8.792;2023-07-16T13:01:59;29.30;96.50
7366;DHT22;3723;52.220;8.792;2023-07-16T13:04:26;29.10;96.30
7366;DHT22;3723;52.220;8.792;2023-07-16T13:06:53;28.50;94.40
7366;DHT22;3723;52.220;8.792;2023-07-16T13:09:20;28.10;93.30
7366;DHT22;3723;52.220;8.792;2023-07-16T13:11:48;27.80;92.10
7366;DHT22;3723;52.220;8.792;2023-07-16T13:14:18;27.60;93.40
7366;DHT22;3723;52.220;8.792;2023-07-16T13:16:45;28.10;94.10
7366;DHT22;3723;52.220;8.792;2023-07-16T13:19:12;29.10;96.10
7366;DHT22;3723;52.220;8.792;2023-07-16T13:21:39;29.90;99.90
7366;DHT22;3723;52.220;8.792;2023-07-16T13:24:06;29.40;97.80
7366;DHT22;3723;52.220;8.792;2023-07-16T13:26:33;28.80;95.10
7366;DHT22;3723;52.220;8.792;2023-07-16T13:29:00;28.40;94.60
7366;DHT22;3723;52.220;8.792;2023-07-16T13:31:29;28.50;94.90
7366;DHT22;3723;52.220;8.792;2023-07-16T13:34:05;29.00;97.10
7366;DHT22;3723;52.220;8.792;2023-07-16T13:36:32;29.90;99.10
7366;DHT22;3723;52.220;8.792;2023-07-16T13:38:59;30.40;99.90
7366;DHT22;3723;52.220;8.792;2023-07-16T13:41:26;29.70;97.80
7366;DHT22;3723;52.220;8.792;2023-07-16T13:43:53;29.00;96.50
7366;DHT22;3723;52.220;8.792;2023-07-16T13:46:20;28.90;95.70
7366;DHT22;3723;52.220;8.792;2023-07-16T13:48:51;29.00;95.40
7366;DHT22;3723;52.220;8.792;2023-07-16T13:51:18;28.40;92.50
7366;DHT22;3723;52.220;8.792;2023-07-16T13:53:48;28.00;92.00
7366;DHT22;3723;52.220;8.792;2023-07-16T13:58:42;29.50;90.80
7366;DHT22;3723;52.220;8.792;2023-07-16T14:01:12;29.90;97.50
7366;DHT22;3723;52.220;8.792;2023-07-16T14:03:39;29.90;98.80
7366;DHT22;3723;52.220;8.792;2023-07-16T14:06:07;30.70;99.90
7366;DHT22;3723;52.220;8.792;2023-07-16T14:08:34;30.70;98.90
7366;DHT22;3723;52.220;8.792;2023-07-16T14:11:02;30.50;98.20
7366;DHT22;3723;52.220;8.792;2023-07-16T14:13:29;30.50;98.20
7366;DHT22;3723;52.220;8.792;2023-07-16T14:16:02;30.10;97.30
7366;DHT22;3723;52.220;8.792;2023-07-16T14:18:29;29.90;96.80
7366;DHT22;3723;52.220;8.792;2023-07-16T14:21:00;29.50;94.10
7366;DHT22;3723;52.220;8.792;2023-07-16T14:23:29;29.50;94.40
7366;DHT22;3723;52.220;8.792;2023-07-16T14:25:56;29.40;92.90
7366;DHT22;3723;52.220;8.792;2023-07-16T14:28:23;29.70;93.90
7366;DHT22;3723;52.220;8.792;2023-07-16T14:30:53;30.30;95.70
7366;DHT22;3723;52.220;8.792;2023-07-16T14:33:21;30.20;95.90
7366;DHT22;3723;52.220;8.792;2023-07-16T14:35:50;29.70;94.10
7366;DHT22;3723;52.220;8.792;2023-07-16T14:38:17;28.90;91.60
7366;DHT22;3723;52.220;8.792;2023-07-16T14:40:45;28.40;90.20
7366;DHT22;3723;52.220;8.792;2023-07-16T14:43:19;27.90;94.00
7366;DHT22;3723;52.220;8.792;2023-07-16T14:45:46;27.80;85.90
7366;DHT22;3723;52.220;8.792;2023-07-16T14:48:13;28.10;89.70
7366;DHT22;3723;52.220;8.792;2023-07-16T14:50:43;28.20;90.70
7366;DHT22;3723;52.220;8.792;2023-07-16T14:53:14;28.30;90.10
7366;DHT22;3723;52.220;8.792;2023-07-16T14:55:48;28.20;90.80
7366;DHT22;3723;52.220;8.792;2023-07-16T14:58:17;27.90;88.60
7366;DHT22;3723;52.220;8.792;2023-07-16T15:00:48;27.80;89.30
7366;DHT22;3723;52.220;8.792;2023-07-16T15:03:15;28.00;89.80
7366;DHT22;3723;52.220;8.792;2023-07-16T15:05:44;28.20;91.20
7366;DHT22;3723;52.220;8.792;2023-07-16T15:08:12;28.20;92.10
7366;DHT22;3723;52.220;8.792;2023-07-16T15:10:39;28.40;91.80
7366;DHT22;3723;52.220;8.792;2023-07-16T15:13:27;28.60;91.90
7366;DHT22;3723;52.220;8.792;2023-07-16T15:15:57;28.70;93.80
7366;DHT22;3723;52.220;8.792;2023-07-16T15:18:25;29.00;93.20
7366;DHT22;3723;52.220;8.792;2023-07-16T15:20:56;28.80;93.80
7366;DHT22;3723;52.220;8.792;2023-07-16T15:23:28;28.80;93.90
7366;DHT22;3723;52.220;8.792;2023-07-16T15:25:55;28.80;93.40
7366;DHT22;3723;52.220;8.792;2023-07-16T15:28:36;28.60;92.70
7366;DHT22;3723;52.220;8.792;2023-07-16T15:31:04;28.60;93.80
7366;DHT22;3723;52.220;8.792;2023-07-16T15:33:31;29.00;93.80
7366;DHT22;3723;52.220;8.792;2023-07-16T15:36:00;29.00;93.40
7366;DHT22;3723;52.220;8.792;2023-07-16T15:38:36;28.70;91.80
7366;DHT22;3723;52.220;8.792;2023-07-16T15:41:04;28.60;91.50
7366;DHT22;3723;52.220;8.792;2023-07-16T15:43:33;28.60;91.50
7366;DHT22;3723;52.220;8.792;2023-07-16T15:46:02;28.50;91.80
7366;DHT22;3723;52.220;8.792;2023-07-16T15:48:29;28.30;92.30
7366;DHT22;3723;52.220;8.792;2023-07-16T15:50:57;28.40;91.70
7366;DHT22;3723;52.220;8.792;2023-07-16T15:53:24;28.50;92.00
7366;DHT22;3723;52.220;8.792;2023-07-16T15:55:51;28.80;92.70
7366;DHT22;3723;52.220;8.792;2023-07-16T15:58:19;28.90;92.50
7366;DHT22;3723;52.220;8.792;2023-07-16T16:00:48;28.80;92.20
7366;DHT22;3723;52.220;8.792;2023-07-16T16:03:15;28.70;91.70
7366;DHT22;3723;52.220;8.792;2023-07-16T16:05:42;28.60;90.60
7366;DHT22;3723;52.220;8.792;2023-07-16T16:08:14;28.70;92.30
7366;DHT22;3723;52.220;8.792;2023-07-16T16:10:43;28.70;91.20
7366;DHT22;3723;52.220;8.792;2023-07-16T16:13:16;28.50;90.20
7366;DHT22;3723;52.220;8.792;2023-07-16T16:15:45;28.40;90.30
7366;DHT22;3723;52.220;8.792;2023-07-16T16:18:14;28.40;91.30
7366;DHT22;3723;52.220;8.792;2023-07-16T16:20:42;28.20;89.50
7366;DHT22;3723;52.220;8.792;2023-07-16T16:23:10;27.80;84.50
7366;DHT22;3723;52.220;8.792;2023-07-16T16:25:37;27.80;85.20
7366;DHT22;3723;52.220;8.792;2023-07-16T16:28:05;27.80;87.00
7366;DHT22;3723;52.220;8.792;2023-07-16T16:30:34;27.50;84.60
7366;DHT22;3723;52.220;8.792;2023-07-16T16:33:07;27.30;85.30
7366;DHT22;3723;52.220;8.792;2023-07-16T16:35:38;27.60;86.10
7366;DHT22;3723;52.220;8.792;2023-07-16T16:38:05;27.50;86.70
7366;DHT22;3723;52.220;8.792;2023-07-16T16:40:33;27.50;84.20
7366;DHT22;3723;52.220;8.792;2023-07-16T16:43:03;27.30;87.10
7366;DHT22;3723;52.220;8.792;2023-07-16T16:45:32;27.00;82.80
7366;DHT22;3723;52.220;8.792;2023-07-16T16:48:05;26.50;80.60
7366;DHT22;3723;52.220;8.792;2023-07-16T16:50:33;26.10;77.70
7366;DHT22;3723;52.220;8.792;2023-07-16T16:53:01;25.70;75.40
7366;DHT22;3723;52.220;8.792;2023-07-16T16:55:28;25.50;76.90
7366;DHT22;3723;52.220;8.792;2023-07-16T16:57:55;25.30;74.70
7366;DHT22;3723;52.220;8.792;2023-07-16T17:00:22;25.30;74.60
7366;DHT22;3723;52.220;8.792;2023-07-16T17:02:49;25.40;75.50
7366;DHT22;3723;52.220;8.792;2023-07-16T17:05:16;25.60;81.40
7366;DHT22;3723;52.220;8.792;2023-07-16T17:07:46;25.70;80.10
7366;DHT22;3723;52.220;8.792;2023-07-16T17:10:15;26.00;84.70
7366;DHT22;3723;52.220;8.792;2023-07-16T17:12:42;26.30;96.70